createdAt,value
2022-12-19T00:01:16.718Z,-8.10
2022-12-19T00:03:50.915Z,-8.09
2022-12-19T00:06:18.632Z,-8.05
2022-12-19T00:08:46.533Z,-8.12
2022-12-19T00:11:15.201Z,-8.09
2022-12-19T00:13:42.874Z,-8.14
2022-12-19T00:16:18.923Z,-8.08
2022-12-19T00:18:47.301Z,-8.11
2022-12-19T00:21:19.492Z,-8.07
2022-12-19T00:23:46.931Z,-7.95
2022-12-19T00:26:22.206Z,-7.96
2022-12-19T00:28:52.196Z,-8.02
2022-12-19T00:31:20.560Z,-7.87
2022-12-19T00:33:48.014Z,-7.87
2022-12-19T00:36:20.139Z,-7.81
2022-12-19T00:38:51.392Z,-7.90
2022-12-19T00:41:27.597Z,-7.92
2022-12-19T00:44:02.453Z,-7.81
2022-12-19T00:46:30.919Z,-7.99
2022-12-19T00:48:57.817Z,-7.96
2022-12-19T00:51:26.840Z,-7.99
2022-12-19T00:53:55.128Z,-7.96
2022-12-19T00:56:24.262Z,-7.90
2022-12-19T00:58:51.101Z,-7.85
2022-12-19T01:01:20.195Z,-7.88
2022-12-19T01:04:18.682Z,-7.87
2022-12-19T01:06:33.936Z,-7.83
2022-12-19T01:09:01.007Z,-7.93
2022-12-19T01:11:46.166Z,-7.86
2022-12-19T01:14:19.002Z,-7.78
2022-12-19T01:16:47.601Z,-7.66
2022-12-19T01:19:14.217Z,-7.72
2022-12-19T01:21:40.870Z,-7.64
2022-12-19T01:24:10.983Z,-7.62
2022-12-19T01:26:37.630Z,-7.64
2022-12-19T01:29:05.104Z,-7.62
2022-12-19T01:31:33.456Z,-7.66
2022-12-19T01:34:01.299Z,-7.67
2022-12-19T01:36:28.292Z,-7.63
2022-12-19T01:38:58.206Z,-7.55
2022-12-19T01:41:25.284Z,-7.56
2022-12-19T01:44:03.582Z,-7.39
2022-12-19T01:46:36.640Z,-7.28
2022-12-19T01:49:05.002Z,-7.33
2022-12-19T01:51:39.304Z,-7.44
2022-12-19T01:54:08.993Z,-7.53
2022-12-19T01:56:39.473Z,-7.38
2022-12-19T01:59:12.793Z,-7.36
2022-12-19T02:01:51.172Z,-7.37
2022-12-19T02:04:19.184Z,-7.38
2022-12-19T02:06:47.339Z,-7.28
2022-12-19T02:09:14.550Z,-7.27
2022-12-19T02:11:41.152Z,-7.22
2022-12-19T02:14:07.810Z,-7.30
2022-12-19T02:17:00.211Z,-7.36
2022-12-19T02:19:47.385Z,-7.26
2022-12-19T02:22:19.196Z,-7.33
2022-12-19T02:24:57.809Z,-7.31
2022-12-19T02:27:42.335Z,-7.33
2022-12-19T02:30:11.458Z,-7.29
2022-12-19T02:32:47.229Z,-7.27
2022-12-19T02:35:19.545Z,-7.25
2022-12-19T02:38:13.214Z,-7.22
2022-12-19T02:40:44.194Z,-7.15
2022-12-19T02:43:13.731Z,-7.15
2022-12-19T02:45:41.586Z,-7.16
2022-12-19T02:48:09.383Z,-7.06
2022-12-19T02:50:41.160Z,-7.00
2022-12-19T02:53:10.792Z,-7.06
2022-12-19T02:56:02.248Z,-7.07
2022-12-19T02:58:51.713Z,-6.99
2022-12-19T03:15:55.359Z,-6.56
2022-12-19T03:18:22.032Z,-6.62
2022-12-19T03:20:53.232Z,-6.54
2022-12-19T03:23:20.273Z,-6.57
2022-12-19T03:25:50.304Z,-6.56
2022-12-19T03:28:23.771Z,-6.55
2022-12-19T03:30:50.749Z,-6.51
2022-12-19T03:33:19.188Z,-6.38
2022-12-19T03:35:46.801Z,-6.47
2022-12-19T03:38:14.806Z,-6.36
2022-12-19T03:40:44.320Z,-6.44
2022-12-19T03:43:12.719Z,-6.42
2022-12-19T03:46:02.891Z,-6.33
2022-12-19T03:48:49.994Z,-6.26
2022-12-19T03:51:57.873Z,-6.21
2022-12-19T03:54:28.509Z,-6.21
2022-12-19T03:57:12.055Z,-6.11
2022-12-19T03:59:56.352Z,-6.11
2022-12-19T04:02:24.064Z,-6.09
2022-12-19T04:04:56.857Z,-6.13
2022-12-19T04:07:23.987Z,-6.08
2022-12-19T04:09:51.554Z,-6.10
2022-12-19T04:12:24.233Z,-6.05
2022-12-19T04:14:51.668Z,-6.08
2022-12-19T04:17:30.910Z,-6.24
2022-12-19T04:20:05.070Z,-6.25
2022-12-19T04:22:34.719Z,-6.22
2022-12-19T04:25:03.079Z,-6.20
2022-12-19T04:27:31.922Z,-6.09
2022-12-19T04:29:59.501Z,-6.23
2022-12-19T04:32:27.791Z,-6.07
2022-12-19T04:34:54.410Z,-6.24
2022-12-19T04:37:21.285Z,-6.17
2022-12-19T04:39:47.910Z,-6.10
2022-12-19T04:42:14.478Z,-6.24
2022-12-19T04:44:41.156Z,-6.06
2022-12-19T04:47:07.886Z,-6.06
2022-12-19T04:49:34.694Z,-6.07
2022-12-19T04:52:01.301Z,-6.08
2022-12-19T04:54:27.846Z,-6.00
2022-12-19T04:56:54.740Z,-5.99
2022-12-19T04:59:21.290Z,-5.99
2022-12-19T05:01:47.973Z,-5.96
2022-12-19T05:04:14.625Z,-5.83
2022-12-19T05:06:41.362Z,-6.03
2022-12-19T05:09:09.931Z,-6.03
2022-12-19T05:11:36.587Z,-6.22
2022-12-19T05:14:03.587Z,-6.15
2022-12-19T05:16:30.293Z,-6.08
2022-12-19T05:18:56.958Z,-6.06
2022-12-19T05:21:23.843Z,-6.08
2022-12-19T05:23:51.381Z,-6.02
2022-12-19T05:26:18.013Z,-6.07
2022-12-19T05:28:44.620Z,-6.01
2022-12-19T05:31:17.018Z,-6.04
2022-12-19T05:33:44.114Z,-6.18
2022-12-19T05:36:11.958Z,-6.07
2022-12-19T05:38:38.808Z,-5.99
2022-12-19T05:41:10.790Z,-6.14
2022-12-19T05:43:37.559Z,-5.93
2022-12-19T05:46:05.396Z,-5.99
2022-12-19T05:48:32.098Z,-6.01
2022-12-19T05:50:58.667Z,-5.97
2022-12-19T05:53:27.523Z,-6.01
2022-12-19T05:56:11.868Z,-6.06
2022-12-19T05:58:39.258Z,-5.97
2022-12-19T06:01:12.332Z,-6.07
2022-12-19T06:03:39.028Z,-5.98
2022-12-19T06:06:08.640Z,-6.07
2022-12-19T06:08:35.302Z,-6.01
2022-12-19T06:11:03.731Z,-5.94
2022-12-19T06:13:31.135Z,-5.85
2022-12-19T06:16:10.297Z,-5.83
2022-12-19T06:18:42.901Z,-5.77
2022-12-19T06:21:13.345Z,-5.68
2022-12-19T06:23:40.381Z,-5.64
2022-12-19T06:26:07.957Z,-5.57
2022-12-19T06:28:35.673Z,-5.57
2022-12-19T06:31:04.371Z,-5.89
2022-12-19T06:33:31.912Z,-5.91
2022-12-19T06:36:02.872Z,-6.05
2022-12-19T06:38:30.099Z,-6.07
2022-12-19T06:41:15.108Z,-6.06
2022-12-19T06:43:41.716Z,-5.68
2022-12-19T06:46:08.583Z,-5.81
2022-12-19T06:48:35.633Z,-5.79
2022-12-19T06:51:02.505Z,-5.63
2022-12-19T06:53:29.630Z,-5.70
2022-12-19T06:55:57.875Z,-5.80
2022-12-19T06:58:24.795Z,-5.90
2022-12-19T07:00:51.589Z,-5.60
2022-12-19T07:03:21.847Z,-5.69
2022-12-19T07:05:48.695Z,-5.79
2022-12-19T07:08:15.308Z,-5.73
2022-12-19T07:10:41.991Z,-5.83
2022-12-19T07:13:08.624Z,-5.86
2022-12-19T07:15:36.286Z,-5.82
2022-12-19T07:18:04.449Z,-5.91
2022-12-19T07:20:31.937Z,-5.90
2022-12-19T07:22:59.209Z,-5.87
2022-12-19T07:25:25.795Z,-5.90
2022-12-19T07:27:52.539Z,-5.79
2022-12-19T07:30:19.215Z,-5.96
2022-12-19T07:32:45.848Z,-5.96
2022-12-19T07:35:12.447Z,-5.99
2022-12-19T07:37:39.062Z,-6.16
2022-12-19T07:40:06.532Z,-6.08
2022-12-19T07:42:34.103Z,-5.96
2022-12-19T07:45:01.499Z,-5.84
2022-12-19T07:47:28.208Z,-5.89
2022-12-19T07:49:54.879Z,-5.97
2022-12-19T07:52:21.523Z,-6.01
2022-12-19T07:54:48.068Z,-5.99
2022-12-19T07:57:14.691Z,-5.85
2022-12-19T07:59:41.297Z,-5.57
2022-12-19T08:02:08.210Z,-5.47
2022-12-19T08:04:34.981Z,-5.73
2022-12-19T08:07:02.484Z,-5.45
2022-12-19T08:09:29.262Z,-5.87
2022-12-19T08:11:55.974Z,-5.58
2022-12-19T08:14:22.601Z,-5.71
2022-12-19T08:17:19.421Z,-5.76
2022-12-19T08:19:36.090Z,-5.63
2022-12-19T08:22:02.732Z,-5.69
2022-12-19T08:24:30.921Z,-5.56
2022-12-19T08:26:58.908Z,-5.40
2022-12-19T08:29:25.591Z,-5.34
2022-12-19T08:31:52.263Z,-5.11
2022-12-19T08:34:19.011Z,-5.65
2022-12-19T08:36:45.599Z,-5.41
2022-12-19T08:39:12.160Z,-5.32
2022-12-19T08:41:38.762Z,-5.30
2022-12-19T08:44:05.499Z,-5.27
2022-12-19T08:46:32.213Z,-5.30
2022-12-19T08:48:58.909Z,-5.27
2022-12-19T08:51:27.099Z,-5.15
2022-12-19T08:53:53.700Z,-4.90
2022-12-19T08:56:21.813Z,-4.94
2022-12-19T08:58:48.827Z,-4.87
2022-12-19T09:01:19.337Z,-4.88
2022-12-19T09:05:02.099Z,-4.81
2022-12-19T09:06:33.434Z,-5.26
2022-12-19T09:09:00.600Z,-5.27
2022-12-19T09:11:27.593Z,-5.25
2022-12-19T09:13:56.489Z,-4.91
2022-12-19T09:16:24.864Z,-4.91
2022-12-19T09:18:54.206Z,-4.69
2022-12-19T09:21:22.590Z,-4.71
2022-12-19T09:23:51.073Z,-4.59
2022-12-19T09:26:18.290Z,-4.55
2022-12-19T09:28:45.845Z,-4.49
2022-12-19T09:31:14.942Z,-4.47
2022-12-19T09:33:43.890Z,-4.47
2022-12-19T09:36:20.240Z,-4.34
2022-12-19T09:38:47.360Z,-4.36
2022-12-19T09:41:13.910Z,-4.63
2022-12-19T09:43:57.251Z,-4.56
2022-12-19T09:46:35.010Z,-4.32
2022-12-19T09:49:01.886Z,-4.59
2022-12-19T09:51:34.823Z,-4.82
2022-12-19T09:54:15.262Z,-4.55
2022-12-19T09:56:45.769Z,-4.77
2022-12-19T09:59:29.510Z,-4.64
2022-12-19T10:02:51.865Z,-4.63
2022-12-19T10:07:03.422Z,-4.23
2022-12-19T10:08:38.070Z,-4.15
2022-12-19T10:12:39.853Z,-4.38
2022-12-19T10:14:53.241Z,-4.32
2022-12-19T10:17:46.011Z,-4.27
2022-12-19T10:20:25.672Z,-4.39
2022-12-19T10:23:10.770Z,-4.11
2022-12-19T10:25:50.821Z,-4.50
2022-12-19T10:28:33.106Z,-4.24
2022-12-19T10:31:22.072Z,-3.94
2022-12-19T10:34:06.850Z,-3.87
2022-12-19T10:37:12.848Z,-4.15
2022-12-19T10:39:47.236Z,-4.05
2022-12-19T10:42:30.705Z,-4.04
2022-12-19T10:44:59.255Z,-3.97
2022-12-19T10:47:25.904Z,-3.60
2022-12-19T10:49:52.484Z,-3.42
2022-12-19T10:52:46.563Z,-3.63
2022-12-19T10:55:45.675Z,-3.19
2022-12-19T10:58:19.462Z,-3.59
2022-12-19T11:01:05.410Z,-3.78
2022-12-19T11:03:34.115Z,-3.61
2022-12-19T11:06:02.748Z,-3.76
2022-12-19T11:08:33.521Z,-3.79
2022-12-19T11:12:02.658Z,-3.79
2022-12-19T11:18:43.493Z,-3.93
2022-12-19T11:26:07.195Z,-3.55
2022-12-19T11:29:30.357Z,-3.62
2022-12-19T11:29:44.648Z,-3.65
2022-12-19T11:30:09.921Z,-3.63
2022-12-19T11:30:49.021Z,-3.57
2022-12-19T11:34:37.242Z,-3.41
2022-12-19T11:37:21.359Z,-3.53
2022-12-19T11:39:51.705Z,-3.39
2022-12-19T11:42:24.796Z,-3.27
2022-12-19T11:44:57.668Z,-3.57
2022-12-19T11:47:42.502Z,-3.19
2022-12-19T11:50:17.020Z,-3.48
2022-12-19T11:53:04.889Z,-3.60
2022-12-19T11:56:02.735Z,-3.29
2022-12-19T11:58:32.827Z,-3.30
2022-12-19T12:01:05.533Z,-3.31
2022-12-19T12:04:06.385Z,-3.23
2022-12-19T12:06:45.492Z,-3.21
2022-12-19T12:13:07.325Z,-3.43
2022-12-19T12:19:53.845Z,-3.46
2022-12-19T12:25:45.820Z,-3.26
2022-12-19T12:26:14.123Z,-3.32
2022-12-19T12:31:14.249Z,-3.58
2022-12-19T12:31:55.328Z,-3.47
2022-12-19T12:31:57.030Z,-3.41
2022-12-19T12:35:05.928Z,-3.42
2022-12-19T12:35:30.673Z,-3.59
2022-12-19T12:39:59.675Z,-3.59
2022-12-19T12:43:01.390Z,-3.56
2022-12-19T12:45:42.067Z,-3.52
2022-12-19T12:48:32.391Z,-3.46
2022-12-19T12:51:00.569Z,-3.49
2022-12-19T12:53:33.334Z,-3.65
2022-12-19T12:56:02.421Z,-3.63
2022-12-19T12:58:50.963Z,-3.78
2022-12-19T13:01:30.417Z,-3.80
2022-12-19T13:04:17.412Z,-3.78
2022-12-19T13:06:50.260Z,-3.74
2022-12-19T13:09:26.598Z,-3.85
2022-12-19T13:12:36.680Z,-3.96
2022-12-19T13:15:22.206Z,-3.94
2022-12-19T13:17:49.435Z,-3.87
2022-12-19T13:20:19.249Z,-3.83
2022-12-19T13:22:59.125Z,-4.08
2022-12-19T13:25:34.997Z,-4.08
2022-12-19T13:28:01.687Z,-4.13
2022-12-19T13:30:50.116Z,-4.22
2022-12-19T13:33:20.165Z,-4.26
2022-12-19T13:39:37.057Z,-4.27
2022-12-19T13:39:56.171Z,-4.27
2022-12-19T13:41:59.621Z,-4.45
2022-12-19T13:44:26.615Z,-4.45
